sensor_id;sensor_type;location;lat;lon;timestamp;P1;durP1;ratioP1;P2;durP2;ratioP2
25299;SDS011;13241;51.208;4.432;2024-02-21T00:01:26;6.88;;;3.25;;
25299;SDS011;13241;51.208;4.432;2024-02-21T00:03:53;11.25;;;3.65;;
25299;SDS011;13241;51.208;4.432;2024-02-21T00:06:20;7.85;;;2.95;;
25299;SDS011;13241;51.208;4.432;2024-02-21T00:08:48;7.47;;;2.95;;
25299;SDS011;13241;51.208;4.432;2024-02-21T00:11:16;9.15;;;3.17;;
25299;SDS011;13241;51.208;4.432;2024-02-21T00:13:43;11.35;;;3.80;;
25299;SDS011;13241;51.208;4.432;2024-02-21T00:16:11;9.25;;;3.25;;
25299;SDS011;13241;51.208;4.432;2024-02-21T00:18:39;12.40;;;3.30;;
25299;SDS011;13241;51.208;4.432;2024-02-21T00:21:07;8.65;;;2.90;;
25299;SDS011;13241;51.208;4.432;2024-02-21T00:23:34;7.03;;;2.97;;
25299;SDS011;13241;51.208;4.432;2024-02-21T00:26:02;14.60;;;2.95;;
25299;SDS011;13241;51.208;4.432;2024-02-21T00:28:29;8.30;;;3.85;;
25299;SDS011;13241;51.208;4.432;2024-02-21T00:30:56;9.75;;;3.55;;
25299;SDS011;13241;51.208;4.432;2024-02-21T00:33:24;14.05;;;3.65;;
25299;SDS011;13241;51.208;4.432;2024-02-21T00:35:51;11.73;;;2.92;;
25299;SDS011;13241;51.208;4.432;2024-02-21T00:38:19;5.78;;;2.83;;
25299;SDS011;13241;51.208;4.432;2024-02-21T00:40:47;6.32;;;2.97;;
25299;SDS011;13241;51.208;4.432;2024-02-21T00:43:14;14.68;;;3.30;;
25299;SDS011;13241;51.208;4.432;2024-02-21T00:45:42;10.18;;;2.78;;
25299;SDS011;13241;51.208;4.432;2024-02-21T00:48:09;8.07;;;3.45;;
25299;SDS011;13241;51.208;4.432;2024-02-21T00:50:37;15.50;;;3.95;;
25299;SDS011;13241;51.208;4.432;2024-02-21T00:53:04;13.63;;;3.33;;
25299;SDS011;13241;51.208;4.432;2024-02-21T00:55:31;10.27;;;2.92;;
25299;SDS011;13241;51.208;4.432;2024-02-21T00:57:59;8.63;;;2.75;;
25299;SDS011;13241;51.208;4.432;2024-02-21T01:00:26;9.40;;;3.60;;
25299;SDS011;13241;51.208;4.432;2024-02-21T01:02:54;10.57;;;2.75;;
25299;SDS011;13241;51.208;4.432;2024-02-21T01:05:21;11.50;;;3.25;;
25299;SDS011;13241;51.208;4.432;2024-02-21T01:07:49;12.88;;;3.97;;
25299;SDS011;13241;51.208;4.432;2024-02-21T01:10:16;13.23;;;2.65;;
25299;SDS011;13241;51.208;4.432;2024-02-21T01:12:44;7.13;;;2.67;;
25299;SDS011;13241;51.208;4.432;2024-02-21T01:15:11;7.10;;;2.83;;
25299;SDS011;13241;51.208;4.432;2024-02-21T01:17:39;9.10;;;2.83;;
25299;SDS011;13241;51.208;4.432;2024-02-21T01:20:10;6.32;;;2.30;;
25299;SDS011;13241;51.208;4.432;2024-02-21T01:22:37;10.20;;;4.40;;
25299;SDS011;13241;51.208;4.432;2024-02-21T01:25:05;11.30;;;3.28;;
25299;SDS011;13241;51.208;4.432;2024-02-21T01:27:32;9.75;;;3.03;;
25299;SDS011;13241;51.208;4.432;2024-02-21T01:30:00;6.43;;;2.33;;
25299;SDS011;13241;51.208;4.432;2024-02-21T01:32:27;10.20;;;2.47;;
25299;SDS011;13241;51.208;4.432;2024-02-21T01:34:54;10.25;;;3.80;;
25299;SDS011;13241;51.208;4.432;2024-02-21T01:37:22;8.48;;;3.13;;
25299;SDS011;13241;51.208;4.432;2024-02-21T01:39:49;14.52;;;2.95;;
25299;SDS011;13241;51.208;4.432;2024-02-21T01:42:17;8.75;;;2.97;;
25299;SDS011;13241;51.208;4.432;2024-02-21T01:44:44;4.20;;;1.95;;
25299;SDS011;13241;51.208;4.432;2024-02-21T01:47:12;12.43;;;3.47;;
25299;SDS011;13241;51.208;4.432;2024-02-21T01:49:40;6.47;;;3.20;;
25299;SDS011;13241;51.208;4.432;2024-02-21T01:52:08;12.98;;;3.53;;
25299;SDS011;13241;51.208;4.432;2024-02-21T01:54:37;21.05;;;4.00;;
25299;SDS011;13241;51.208;4.432;2024-02-21T01:57:04;4.72;;;3.03;;
25299;SDS011;13241;51.208;4.432;2024-02-21T01:59:32;7.18;;;3.53;;
25299;SDS011;13241;51.208;4.432;2024-02-21T02:01:59;13.65;;;3.63;;
25299;SDS011;13241;51.208;4.432;2024-02-21T02:04:27;15.30;;;3.42;;
25299;SDS011;13241;51.208;4.432;2024-02-21T02:06:55;8.98;;;3.00;;
25299;SDS011;13241;51.208;4.432;2024-02-21T02:09:22;15.30;;;3.75;;
25299;SDS011;13241;51.208;4.432;2024-02-21T02:11:50;7.90;;;3.33;;
25299;SDS011;13241;51.208;4.432;2024-02-21T02:14:18;7.88;;;3.67;;
25299;SDS011;13241;51.208;4.432;2024-02-21T02:16:46;12.07;;;4.35;;
25299;SDS011;13241;51.208;4.432;2024-02-21T02:19:14;5.60;;;2.70;;
25299;SDS011;13241;51.208;4.432;2024-02-21T02:21:44;14.20;;;3.05;;
25299;SDS011;13241;51.208;4.432;2024-02-21T02:24:13;12.70;;;2.97;;
25299;SDS011;13241;51.208;4.432;2024-02-21T02:26:41;8.50;;;3.50;;
25299;SDS011;13241;51.208;4.432;2024-02-21T02:29:08;9.45;;;4.05;;
25299;SDS011;13241;51.208;4.432;2024-02-21T02:31:36;15.15;;;4.60;;
25299;SDS011;13241;51.208;4.432;2024-02-21T02:34:04;9.18;;;3.60;;
25299;SDS011;13241;51.208;4.432;2024-02-21T02:36:32;13.23;;;4.15;;
25299;SDS011;13241;51.208;4.432;2024-02-21T02:39:00;12.02;;;4.78;;
25299;SDS011;13241;51.208;4.432;2024-02-21T02:41:28;11.05;;;3.33;;
25299;SDS011;13241;51.208;4.432;2024-02-21T02:43:55;11.48;;;3.47;;
25299;SDS011;13241;51.208;4.432;2024-02-21T02:46:23;10.27;;;3.92;;
25299;SDS011;13241;51.208;4.432;2024-02-21T02:48:50;13.82;;;4.75;;
25299;SDS011;13241;51.208;4.432;2024-02-21T02:51:18;11.73;;;4.40;;
25299;SDS011;13241;51.208;4.432;2024-02-21T02:53:45;10.52;;;4.25;;
25299;SDS011;13241;51.208;4.432;2024-02-21T02:56:15;7.85;;;3.80;;
25299;SDS011;13241;51.208;4.432;2024-02-21T02:58:43;9.52;;;3.85;;
25299;SDS011;13241;51.208;4.432;2024-02-21T03:01:10;12.63;;;4.50;;
25299;SDS011;13241;51.208;4.432;2024-02-21T03:03:38;9.93;;;3.40;;
25299;SDS011;13241;51.208;4.432;2024-02-21T03:06:05;9.45;;;3.97;;
25299;SDS011;13241;51.208;4.432;2024-02-21T03:08:33;8.40;;;4.45;;
25299;SDS011;13241;51.208;4.432;2024-02-21T03:11:00;16.45;;;4.40;;
25299;SDS011;13241;51.208;4.432;2024-02-21T03:13:28;13.75;;;4.38;;
25299;SDS011;13241;51.208;4.432;2024-02-21T03:15:55;12.65;;;4.15;;
25299;SDS011;13241;51.208;4.432;2024-02-21T03:18:23;15.30;;;4.40;;
25299;SDS011;13241;51.208;4.432;2024-02-21T03:20:50;16.35;;;4.85;;
25299;SDS011;13241;51.208;4.432;2024-02-21T03:23:18;8.90;;;3.25;;
25299;SDS011;13241;51.208;4.432;2024-02-21T03:25:45;13.88;;;4.35;;
25299;SDS011;13241;51.208;4.432;2024-02-21T03:28:12;8.23;;;4.13;;
25299;SDS011;13241;51.208;4.432;2024-02-21T03:30:40;12.23;;;3.65;;
25299;SDS011;13241;51.208;4.432;2024-02-21T03:33:07;4.93;;;3.03;;
25299;SDS011;13241;51.208;4.432;2024-02-21T03:35:34;19.48;;;5.30;;
25299;SDS011;13241;51.208;4.432;2024-02-21T03:38:02;12.35;;;3.72;;
25299;SDS011;13241;51.208;4.432;2024-02-21T03:40:29;12.05;;;3.83;;
25299;SDS011;13241;51.208;4.432;2024-02-21T03:42:57;14.48;;;4.15;;
25299;SDS011;13241;51.208;4.432;2024-02-21T03:45:25;14.50;;;5.60;;
25299;SDS011;13241;51.208;4.432;2024-02-21T03:47:52;8.82;;;3.60;;
25299;SDS011;13241;51.208;4.432;2024-02-21T03:50:19;4.03;;;2.63;;
25299;SDS011;13241;51.208;4.432;2024-02-21T03:52:47;9.52;;;4.05;;
25299;SDS011;13241;51.208;4.432;2024-02-21T03:55:14;12.27;;;3.80;;
25299;SDS011;13241;51.208;4.432;2024-02-21T03:57:42;6.65;;;3.47;;
25299;SDS011;13241;51.208;4.432;2024-02-21T04:00:09;11.27;;;3.63;;
25299;SDS011;13241;51.208;4.432;2024-02-21T04:02:37;7.70;;;2.80;;
25299;SDS011;13241;51.208;4.432;2024-02-21T04:05:05;13.40;;;3.88;;
25299;SDS011;13241;51.208;4.432;2024-02-21T04:07:32;14.18;;;3.67;;
25299;SDS011;13241;51.208;4.432;2024-02-21T04:10:00;5.90;;;2.65;;
25299;SDS011;13241;51.208;4.432;2024-02-21T04:12:27;13.82;;;3.83;;
25299;SDS011;13241;51.208;4.432;2024-02-21T04:14:55;6.30;;;3.47;;
25299;SDS011;13241;51.208;4.432;2024-02-21T04:17:22;14.93;;;4.88;;
25299;SDS011;13241;51.208;4.432;2024-02-21T04:19:49;7.40;;;4.18;;
25299;SDS011;13241;51.208;4.432;2024-02-21T04:22:17;8.50;;;4.13;;
25299;SDS011;13241;51.208;4.432;2024-02-21T04:24:44;8.23;;;3.50;;
25299;SDS011;13241;51.208;4.432;2024-02-21T04:27:12;7.35;;;3.30;;
25299;SDS011;13241;51.208;4.432;2024-02-21T04:29:39;8.48;;;3.65;;
25299;SDS011;13241;51.208;4.432;2024-02-21T04:32:07;10.95;;;4.35;;
25299;SDS011;13241;51.208;4.432;2024-02-21T04:34:35;11.40;;;3.65;;
25299;SDS011;13241;51.208;4.432;2024-02-21T04:37:02;13.55;;;4.07;;
25299;SDS011;13241;51.208;4.432;2024-02-21T04:39:30;7.45;;;3.63;;
25299;SDS011;13241;51.208;4.432;2024-02-21T04:41:57;9.40;;;3.85;;
25299;SDS011;13241;51.208;4.432;2024-02-21T04:44:25;6.82;;;4.10;;
25299;SDS011;13241;51.208;4.432;2024-02-21T04:46:52;7.40;;;3.10;;
25299;SDS011;13241;51.208;4.432;2024-02-21T04:49:19;12.55;;;3.67;;
25299;SDS011;13241;51.208;4.432;2024-02-21T04:51:47;6.72;;;3.78;;
25299;SDS011;13241;51.208;4.432;2024-02-21T04:54:14;6.45;;;3.58;;
25299;SDS011;13241;51.208;4.432;2024-02-21T04:56:42;9.35;;;4.03;;
25299;SDS011;13241;51.208;4.432;2024-02-21T04:59:09;12.38;;;3.47;;
25299;SDS011;13241;51.208;4.432;2024-02-21T05:01:37;9.00;;;4.05;;
25299;SDS011;13241;51.208;4.432;2024-02-21T05:04:04;16.75;;;4.20;;
25299;SDS011;13241;51.208;4.432;2024-02-21T05:06:32;8.00;;;3.88;;
25299;SDS011;13241;51.208;4.432;2024-02-21T05:08:59;7.43;;;3.13;;
25299;SDS011;13241;51.208;4.432;2024-02-21T05:11:27;11.82;;;3.40;;
25299;SDS011;13241;51.208;4.432;2024-02-21T05:13:54;7.80;;;3.33;;
25299;SDS011;13241;51.208;4.432;2024-02-21T05:16:22;10.63;;;4.63;;
25299;SDS011;13241;51.208;4.432;2024-02-21T05:18:49;4.30;;;2.78;;
25299;SDS011;13241;51.208;4.432;2024-02-21T05:21:17;13.65;;;3.72;;
25299;SDS011;13241;51.208;4.432;2024-02-21T05:23:44;14.57;;;4.45;;
25299;SDS011;13241;51.208;4.432;2024-02-21T05:26:12;5.07;;;3.30;;
25299;SDS011;13241;51.208;4.432;2024-02-21T05:28:46;8.60;;;4.13;;
25299;SDS011;13241;51.208;4.432;2024-02-21T05:31:14;12.23;;;4.30;;
25299;SDS011;13241;51.208;4.432;2024-02-21T05:33:42;8.43;;;3.47;;
25299;SDS011;13241;51.208;4.432;2024-02-21T05:36:10;9.52;;;4.30;;
25299;SDS011;13241;51.208;4.432;2024-02-21T05:38:37;11.27;;;3.75;;
25299;SDS011;13241;51.208;4.432;2024-02-21T05:41:05;11.90;;;3.85;;
25299;SDS011;13241;51.208;4.432;2024-02-21T05:43:37;7.75;;;3.25;;
25299;SDS011;13241;51.208;4.432;2024-02-21T05:46:05;10.18;;;4.00;;
25299;SDS011;13241;51.208;4.432;2024-02-21T05:48:32;15.73;;;4.90;;
25299;SDS011;13241;51.208;4.432;2024-02-21T05:51:05;10.27;;;4.32;;
25299;SDS011;13241;51.208;4.432;2024-02-21T05:53:32;17.90;;;4.22;;
25299;SDS011;13241;51.208;4.432;2024-02-21T05:55:59;10.57;;;4.03;;
25299;SDS011;13241;51.208;4.432;2024-02-21T05:58:27;13.52;;;4.15;;
25299;SDS011;13241;51.208;4.432;2024-02-21T06:00:57;10.60;;;4.03;;
25299;SDS011;13241;51.208;4.432;2024-02-21T06:03:25;14.57;;;4.05;;
25299;SDS011;13241;51.208;4.432;2024-02-21T06:05:52;8.30;;;4.30;;
25299;SDS011;13241;51.208;4.432;2024-02-21T06:08:20;14.65;;;4.88;;
25299;SDS011;13241;51.208;4.432;2024-02-21T06:10:48;8.77;;;5.05;;
25299;SDS011;13241;51.208;4.432;2024-02-21T06:13:15;11.93;;;5.05;;
25299;SDS011;13241;51.208;4.432;2024-02-21T06:15:43;8.25;;;4.07;;
25299;SDS011;13241;51.208;4.432;2024-02-21T06:18:10;6.95;;;3.25;;
25299;SDS011;13241;51.208;4.432;2024-02-21T06:20:37;10.50;;;4.05;;
25299;SDS011;13241;51.208;4.432;2024-02-21T06:23:06;20.55;;;4.82;;
25299;SDS011;13241;51.208;4.432;2024-02-21T06:25:34;8.40;;;4.32;;
25299;SDS011;13241;51.208;4.432;2024-02-21T06:28:02;8.73;;;4.10;;
25299;SDS011;13241;51.208;4.432;2024-02-21T06:30:29;11.38;;;4.70;;
25299;SDS011;13241;51.208;4.432;2024-02-21T06:32:56;12.90;;;5.28;;
25299;SDS011;13241;51.208;4.432;2024-02-21T06:35:26;8.82;;;5.00;;
25299;SDS011;13241;51.208;4.432;2024-02-21T06:37:53;8.77;;;4.28;;
25299;SDS011;13241;51.208;4.432;2024-02-21T06:40:22;20.05;;;5.13;;
25299;SDS011;13241;51.208;4.432;2024-02-21T06:42:50;13.82;;;5.70;;
25299;SDS011;13241;51.208;4.432;2024-02-21T06:45:17;6.22;;;4.07;;
25299;SDS011;13241;51.208;4.432;2024-02-21T06:47:45;12.60;;;4.80;;
25299;SDS011;13241;51.208;4.432;2024-02-21T06:50:15;16.23;;;4.15;;
25299;SDS011;13241;51.208;4.432;2024-02-21T06:52:43;8.10;;;4.43;;
25299;SDS011;13241;51.208;4.432;2024-02-21T06:55:10;11.88;;;4.20;;
25299;SDS011;13241;51.208;4.432;2024-02-21T06:57:38;10.00;;;4.05;;
25299;SDS011;13241;51.208;4.432;2024-02-21T07:00:05;13.70;;;4.75;;
25299;SDS011;13241;51.208;4.432;2024-02-21T07:02:34;8.30;;;3.17;;
25299;SDS011;13241;51.208;4.432;2024-02-21T07:05:02;12.15;;;3.92;;
25299;SDS011;13241;51.208;4.432;2024-02-21T07:07:30;11.55;;;4.75;;
25299;SDS011;13241;51.208;4.432;2024-02-21T07:09:57;11.70;;;3.55;;
25299;SDS011;13241;51.208;4.432;2024-02-21T07:12:26;8.25;;;3.47;;
25299;SDS011;13241;51.208;4.432;2024-02-21T07:14:54;11.50;;;3.88;;
25299;SDS011;13241;51.208;4.432;2024-02-21T07:17:21;29.10;;;4.63;;
25299;SDS011;13241;51.208;4.432;2024-02-21T07:19:49;11.05;;;3.75;;
25299;SDS011;13241;51.208;4.432;2024-02-21T07:22:16;11.18;;;4.07;;
25299;SDS011;13241;51.208;4.432;2024-02-21T07:24:44;10.95;;;4.07;;
25299;SDS011;13241;51.208;4.432;2024-02-21T07:27:13;9.90;;;3.95;;
25299;SDS011;13241;51.208;4.432;2024-02-21T07:29:40;9.68;;;4.28;;
25299;SDS011;13241;51.208;4.432;2024-02-21T07:32:08;11.00;;;4.05;;
25299;SDS011;13241;51.208;4.432;2024-02-21T07:34:36;13.73;;;4.13;;
25299;SDS011;13241;51.208;4.432;2024-02-21T07:37:04;6.75;;;3.97;;
25299;SDS011;13241;51.208;4.432;2024-02-21T07:39:31;7.15;;;3.38;;
25299;SDS011;13241;51.208;4.432;2024-02-21T07:41:58;9.90;;;4.00;;
25299;SDS011;13241;51.208;4.432;2024-02-21T07:44:26;7.72;;;3.58;;
25299;SDS011;13241;51.208;4.432;2024-02-21T07:46:54;18.08;;;4.18;;
25299;SDS011;13241;51.208;4.432;2024-02-21T07:49:21;12.02;;;4.13;;
25299;SDS011;13241;51.208;4.432;2024-02-21T07:51:49;11.60;;;4.30;;
25299;SDS011;13241;51.208;4.432;2024-02-21T07:54:16;7.97;;;3.10;;
25299;SDS011;13241;51.208;4.432;2024-02-21T07:56:47;6.43;;;3.38;;
25299;SDS011;13241;51.208;4.432;2024-02-21T07:59:14;7.93;;;3.45;;
25299;SDS011;13241;51.208;4.432;2024-02-21T08:01:42;7.25;;;3.80;;
25299;SDS011;13241;51.208;4.432;2024-02-21T08:04:11;8.88;;;3.30;;
25299;SDS011;13241;51.208;4.432;2024-02-21T08:06:39;6.25;;;2.97;;
25299;SDS011;13241;51.208;4.432;2024-02-21T08:09:06;7.90;;;4.18;;
25299;SDS011;13241;51.208;4.432;2024-02-21T08:11:33;7.95;;;3.90;;
25299;SDS011;13241;51.208;4.432;2024-02-21T08:14:01;4.63;;;3.30;;
25299;SDS011;13241;51.208;4.432;2024-02-21T08:16:30;6.70;;;3.45;;
25299;SDS011;13241;51.208;4.432;2024-02-21T08:18:57;5.30;;;3.30;;
25299;SDS011;13241;51.208;4.432;2024-02-21T08:21:26;5.28;;;3.22;;
25299;SDS011;13241;51.208;4.432;2024-02-21T08:23:53;3.67;;;2.97;;
25299;SDS011;13241;51.208;4.432;2024-02-21T08:26:20;9.70;;;4.30;;
25299;SDS011;13241;51.208;4.432;2024-02-21T08:28:48;8.98;;;4.60;;
25299;SDS011;13241;51.208;4.432;2024-02-21T08:31:20;8.90;;;4.25;;
25299;SDS011;13241;51.208;4.432;2024-02-21T08:33:47;7.25;;;3.35;;
25299;SDS011;13241;51.208;4.432;2024-02-21T08:36:19;8.65;;;3.90;;
25299;SDS011;13241;51.208;4.432;2024-02-21T08:38:46;6.85;;;4.00;;
25299;SDS011;13241;51.208;4.432;2024-02-21T08:41:14;9.10;;;4.00;;
25299;SDS011;13241;51.208;4.432;2024-02-21T08:43:41;8.10;;;3.22;;
25299;SDS011;13241;51.208;4.432;2024-02-21T08:46:09;9.25;;;4.25;;
25299;SDS011;13241;51.208;4.432;2024-02-21T08:48:36;12.60;;;4.38;;
25299;SDS011;13241;51.208;4.432;2024-02-21T08:51:04;9.00;;;4.75;;
25299;SDS011;13241;51.208;4.432;2024-02-21T08:53:32;6.57;;;3.88;;
25299;SDS011;13241;51.208;4.432;2024-02-21T08:55:59;11.18;;;4.55;;
25299;SDS011;13241;51.208;4.432;2024-02-21T08:58:27;8.75;;;4.57;;
25299;SDS011;13241;51.208;4.432;2024-02-21T09:00:54;9.13;;;3.83;;
25299;SDS011;13241;51.208;4.432;2024-02-21T09:03:23;12.48;;;4.75;;
25299;SDS011;13241;51.208;4.432;2024-02-21T09:05:50;6.82;;;3.95;;
25299;SDS011;13241;51.208;4.432;2024-02-21T09:08:19;11.00;;;4.72;;
25299;SDS011;13241;51.208;4.432;2024-02-21T09:10:47;7.28;;;3.80;;
25299;SDS011;13241;51.208;4.432;2024-02-21T09:13:15;13.27;;;4.03;;
25299;SDS011;13241;51.208;4.432;2024-02-21T09:15:43;7.65;;;3.92;;
25299;SDS011;13241;51.208;4.432;2024-02-21T09:18:10;4.80;;;3.10;;
25299;SDS011;13241;51.208;4.432;2024-02-21T09:20:38;7.03;;;3.58;;
25299;SDS011;13241;51.208;4.432;2024-02-21T09:23:05;7.68;;;3.50;;
25299;SDS011;13241;51.208;4.432;2024-02-21T09:25:33;5.00;;;3.45;;
25299;SDS011;13241;51.208;4.432;2024-02-21T09:28:03;11.88;;;3.10;;
25299;SDS011;13241;51.208;4.432;2024-02-21T09:30:33;5.45;;;3.45;;
25299;SDS011;13241;51.208;4.432;2024-02-21T09:33:00;6.10;;;2.92;;
25299;SDS011;13241;51.208;4.432;2024-02-21T09:35:28;9.15;;;3.38;;
25299;SDS011;13241;51.208;4.432;2024-02-21T09:37:56;8.65;;;3.17;;
25299;SDS011;13241;51.208;4.432;2024-02-21T09:40:23;7.30;;;2.58;;
25299;SDS011;13241;51.208;4.432;2024-02-21T09:42:52;7.93;;;2.95;;
25299;SDS011;13241;51.208;4.432;2024-02-21T09:45:24;3.72;;;2.67;;
25299;SDS011;13241;51.208;4.432;2024-02-21T09:48:10;7.07;;;3.03;;
25299;SDS011;13241;51.208;4.432;2024-02-21T09:50:40;7.15;;;2.97;;
25299;SDS011;13241;51.208;4.432;2024-02-21T09:53:07;10.43;;;3.10;;
25299;SDS011;13241;51.208;4.432;2024-02-21T09:55:36;3.35;;;2.15;;
25299;SDS011;13241;51.208;4.432;2024-02-21T09:58:09;3.90;;;2.10;;
25299;SDS011;13241;51.208;4.432;2024-02-21T10:00:37;9.38;;;2.65;;
25299;SDS011;13241;51.208;4.432;2024-02-21T10:03:15;5.05;;;2.75;;
25299;SDS011;13241;51.208;4.432;2024-02-21T10:05:46;9.25;;;3.08;;
25299;SDS011;13241;51.208;4.432;2024-02-21T10:08:14;2.28;;;1.67;;
25299;SDS011;13241;51.208;4.432;2024-02-21T10:10:45;4.68;;;2.65;;
25299;SDS011;13241;51.208;4.432;2024-02-21T10:13:26;3.78;;;1.77;;
25299;SDS011;13241;51.208;4.432;2024-02-21T10:16:01;6.30;;;2.03;;
25299;SDS011;13241;51.208;4.432;2024-02-21T10:18:29;3.63;;;2.10;;
25299;SDS011;13241;51.208;4.432;2024-02-21T10:21:03;2.53;;;1.67;;
25299;SDS011;13241;51.208;4.432;2024-02-21T10:23:40;6.45;;;2.40;;
25299;SDS011;13241;51.208;4.432;2024-02-21T10:26:08;3.55;;;2.05;;
25299;SDS011;13241;51.208;4.432;2024-02-21T10:28:37;5.63;;;2.47;;
25299;SDS011;13241;51.208;4.432;2024-02-21T10:31:09;4.50;;;2.00;;
25299;SDS011;13241;51.208;4.432;2024-02-21T10:33:37;3.08;;;2.15;;
25299;SDS011;13241;51.208;4.432;2024-02-21T10:36:08;2.40;;;1.50;;
25299;SDS011;13241;51.208;4.432;2024-02-21T10:38:37;4.05;;;2.20;;
25299;SDS011;13241;51.208;4.432;2024-02-21T10:41:05;5.53;;;2.15;;
25299;SDS011;13241;51.208;4.432;2024-02-21T10:43:39;3.92;;;2.33;;
25299;SDS011;13241;51.208;4.432;2024-02-21T10:46:08;3.42;;;1.85;;
25299;SDS011;13241;51.208;4.432;2024-02-21T10:48:41;3.67;;;1.77;;
25299;SDS011;13241;51.208;4.432;2024-02-21T10:51:17;4.03;;;1.88;;
25299;SDS011;13241;51.208;4.432;2024-02-21T10:58:50;3.08;;;1.70;;
25299;SDS011;13241;51.208;4.432;2024-02-21T11:01:18;3.00;;;1.88;;
25299;SDS011;13241;51.208;4.432;2024-02-21T11:03:46;5.40;;;2.30;;
25299;SDS011;13241;51.208;4.432;2024-02-21T11:06:15;8.77;;;2.40;;
25299;SDS011;13241;51.208;4.432;2024-02-21T11:08:43;5.32;;;2.47;;
25299;SDS011;13241;51.208;4.432;2024-02-21T11:11:14;6.13;;;2.17;;
25299;SDS011;13241;51.208;4.432;2024-02-21T11:14:09;7.55;;;2.72;;
25299;SDS011;13241;51.208;4.432;2024-02-21T11:16:40;6.40;;;1.73;;
25299;SDS011;13241;51.208;4.432;2024-02-21T11:19:08;7.57;;;2.67;;
25299;SDS011;13241;51.208;4.432;2024-02-21T11:21:37;6.60;;;2.10;;
25299;SDS011;13241;51.208;4.432;2024-02-21T11:24:05;6.40;;;2.00;;
25299;SDS011;13241;51.208;4.432;2024-02-21T11:26:32;9.93;;;3.35;;
25299;SDS011;13241;51.208;4.432;2024-02-21T11:29:00;10.32;;;3.40;;
25299;SDS011;13241;51.208;4.432;2024-02-21T11:31:39;8.55;;;3.53;;
25299;SDS011;13241;51.208;4.432;2024-02-21T11:34:10;11.73;;;3.40;;
25299;SDS011;13241;51.208;4.432;2024-02-21T11:36:49;7.72;;;2.88;;
25299;SDS011;13241;51.208;4.432;2024-02-21T11:39:18;3.40;;;2.50;;
25299;SDS011;13241;51.208;4.432;2024-02-21T11:42:08;7.03;;;2.38;;
25299;SDS011;13241;51.208;4.432;2024-02-21T11:44:35;4.80;;;2.10;;
25299;SDS011;13241;51.208;4.432;2024-02-21T11:47:07;7.68;;;3.35;;
25299;SDS011;13241;51.208;4.432;2024-02-21T11:49:38;11.65;;;3.78;;
25299;SDS011;13241;51.208;4.432;2024-02-21T11:52:06;9.15;;;2.70;;
25299;SDS011;13241;51.208;4.432;2024-02-21T11:54:33;5.38;;;2.75;;
25299;SDS011;13241;51.208;4.432;2024-02-21T11:57:01;4.78;;;1.55;;
25299;SDS011;13241;51.208;4.432;2024-02-21T11:59:30;5.85;;;2.38;;
25299;SDS011;13241;51.208;4.432;2024-02-21T12:02:01;4.10;;;2.28;;
25299;SDS011;13241;51.208;4.432;2024-02-21T12:04:32;5.10;;;2.28;;
25299;SDS011;13241;51.208;4.432;2024-02-21T12:06:59;5.95;;;2.45;;
25299;SDS011;13241;51.208;4.432;2024-02-21T12:09:30;7.00;;;2.85;;
25299;SDS011;13241;51.208;4.432;2024-02-21T12:11:58;8.35;;;3.08;;
25299;SDS011;13241;51.208;4.432;2024-02-21T12:14:27;4.00;;;2.80;;
25299;SDS011;13241;51.208;4.432;2024-02-21T12:16:54;7.75;;;2.70;;
25299;SDS011;13241;51.208;4.432;2024-02-21T12:19:22;5.53;;;2.50;;
25299;SDS011;13241;51.208;4.432;2024-02-21T12:21:49;5.72;;;2.38;;
25299;SDS011;13241;51.208;4.432;2024-02-21T12:24:21;5.82;;;2.63;;
25299;SDS011;13241;51.208;4.432;2024-02-21T12:26:52;5.22;;;2.78;;
25299;SDS011;13241;51.208;4.432;2024-02-21T12:29:20;4.05;;;2.38;;
25299;SDS011;13241;51.208;4.432;2024-02-21T12:31:48;4.18;;;2.35;;
25299;SDS011;13241;51.208;4.432;2024-02-21T12:34:15;5.28;;;2.92;;
25299;SDS011;13241;51.208;4.432;2024-02-21T12:36:56;6.72;;;2.25;;
25299;SDS011;13241;51.208;4.432;2024-02-21T12:39:24;5.55;;;1.80;;
25299;SDS011;13241;51.208;4.432;2024-02-21T12:41:53;3.78;;;1.90;;
25299;SDS011;13241;51.208;4.432;2024-02-21T12:44:22;5.30;;;2.70;;
25299;SDS011;13241;51.208;4.432;2024-02-21T12:46:50;9.43;;;2.35;;
25299;SDS011;13241;51.208;4.432;2024-02-21T12:49:20;15.50;;;2.60;;
25299;SDS011;13241;51.208;4.432;2024-02-21T12:51:49;3.85;;;1.73;;
25299;SDS011;13241;51.208;4.432;2024-02-21T12:54:17;7.78;;;2.08;;
25299;SDS011;13241;51.208;4.432;2024-02-21T12:56:44;10.18;;;2.20;;
25299;SDS011;13241;51.208;4.432;2024-02-21T12:59:12;6.03;;;2.33;;
25299;SDS011;13241;51.208;4.432;2024-02-21T13:01:40;6.35;;;1.75;;
25299;SDS011;13241;51.208;4.432;2024-02-21T13:04:08;4.80;;;1.40;;
25299;SDS011;13241;51.208;4.432;2024-02-21T13:06:36;9.32;;;2.28;;
25299;SDS011;13241;51.208;4.432;2024-02-21T13:09:04;4.15;;;1.92;;
25299;SDS011;13241;51.208;4.432;2024-02-21T13:11:34;3.03;;;1.70;;
25299;SDS011;13241;51.208;4.432;2024-02-21T13:14:02;5.60;;;2.47;;
25299;SDS011;13241;51.208;4.432;2024-02-21T13:16:29;4.47;;;2.50;;
25299;SDS011;13241;51.208;4.432;2024-02-21T13:18:58;1.65;;;1.50;;
25299;SDS011;13241;51.208;4.432;2024-02-21T13:21:25;5.68;;;2.55;;
25299;SDS011;13241;51.208;4.432;2024-02-21T13:23:53;1.85;;;1.42;;
25299;SDS011;13241;51.208;4.432;2024-02-21T13:26:21;3.88;;;1.88;;
25299;SDS011;13241;51.208;4.432;2024-02-21T13:28:48;6.22;;;2.10;;
25299;SDS011;13241;51.208;4.432;2024-02-21T13:31:16;4.72;;;1.67;;
25299;SDS011;13241;51.208;4.432;2024-02-21T13:33:43;3.58;;;1.80;;
25299;SDS011;13241;51.208;4.432;2024-02-21T13:36:11;4.72;;;1.75;;
25299;SDS011;13241;51.208;4.432;2024-02-21T13:38:38;9.55;;;3.28;;
25299;SDS011;13241;51.208;4.432;2024-02-21T13:41:06;7.10;;;1.83;;
25299;SDS011;13241;51.208;4.432;2024-02-21T13:43:34;6.70;;;2.72;;
25299;SDS011;13241;51.208;4.432;2024-02-21T13:46:01;3.58;;;1.83;;
25299;SDS011;13241;51.208;4.432;2024-02-21T13:48:31;4.80;;;2.65;;
25299;SDS011;13241;51.208;4.432;2024-02-21T13:51:00;3.65;;;2.78;;
25299;SDS011;13241;51.208;4.432;2024-02-21T13:53:28;2.83;;;2.25;;
25299;SDS011;13241;51.208;4.432;2024-02-21T13:55:56;3.28;;;1.98;;
25299;SDS011;13241;51.208;4.432;2024-02-21T13:58:23;4.60;;;2.50;;
25299;SDS011;13241;51.208;4.432;2024-02-21T14:00:52;4.40;;;1.98;;
25299;SDS011;13241;51.208;4.432;2024-02-21T14:03:20;5.10;;;2.33;;
25299;SDS011;13241;51.208;4.432;2024-02-21T14:05:48;3.47;;;2.33;;
25299;SDS011;13241;51.208;4.432;2024-02-21T14:08:16;7.47;;;2.53;;
25299;SDS011;13241;51.208;4.432;2024-02-21T14:10:44;5.45;;;2.70;;
25299;SDS011;13241;51.208;4.432;2024-02-21T14:13:12;5.25;;;2.53;;
25299;SDS011;13241;51.208;4.432;2024-02-21T14:15:39;3.67;;;2.15;;
25299;SDS011;13241;51.208;4.432;2024-02-21T14:18:07;9.70;;;2.85;;
25299;SDS011;13241;51.208;4.432;2024-02-21T14:20:36;7.10;;;2.83;;
25299;SDS011;13241;51.208;4.432;2024-02-21T14:23:03;5.00;;;2.75;;
25299;SDS011;13241;51.208;4.432;2024-02-21T14:25:31;8.73;;;2.92;;
25299;SDS011;13241;51.208;4.432;2024-02-21T14:27:59;7.60;;;3.05;;
25299;SDS011;13241;51.208;4.432;2024-02-21T14:30:27;2.50;;;2.22;;
25299;SDS011;13241;51.208;4.432;2024-02-21T14:32:55;8.32;;;3.33;;
25299;SDS011;13241;51.208;4.432;2024-02-21T14:35:22;5.53;;;2.65;;
25299;SDS011;13241;51.208;4.432;2024-02-21T14:37:50;4.85;;;2.60;;
25299;SDS011;13241;51.208;4.432;2024-02-21T14:40:19;3.47;;;2.47;;
25299;SDS011;13241;51.208;4.432;2024-02-21T14:42:47;8.40;;;2.88;;
25299;SDS011;13241;51.208;4.432;2024-02-21T14:45:15;10.32;;;2.40;;
25299;SDS011;13241;51.208;4.432;2024-02-21T14:47:42;3.92;;;2.90;;
25299;SDS011;13241;51.208;4.432;2024-02-21T14:50:10;8.25;;;2.90;;
25299;SDS011;13241;51.208;4.432;2024-02-21T14:52:37;5.35;;;3.00;;
25299;SDS011;13241;51.208;4.432;2024-02-21T14:55:05;6.18;;;2.67;;